Time;durP1;ratioP1;P1;durP2;ratioP2;P2;SDS_P1;SDS_P2;PMS_P1;PMS_P2;Temp;Humidity;BMP_temperature;BMP_pressure;BME280_temperature;BME280_humidity;BME280_pressure;Samples;Min_cycle;Max_cycle;Signal;HPM_P1;HPM_P2
2024/01/02 00:00:14;;;;;;;3.45;1.20;;;16.00;56.20;;;;;;5095296;28;20787;-62
2024/01/02 00:02:40;;;;;;;3.42;1.50;;;16.00;56.30;;;;;;5094960;28;20689;-62
2024/01/02 00:05:08;;;;;;;3.47;1.00;;;16.00;56.30;;;;;;5094629;28;20711;-62
2024/01/02 00:07:35;;;;;;;3.42;1.40;;;16.00;56.30;;;;;;5094867;28;20182;-62
2024/01/02 00:10:02;;;;;;;4.10;1.30;;;16.00;56.30;;;;;;5095082;28;20214;-62
2024/01/02 00:12:28;;;;;;;3.42;1.30;;;15.90;56.30;;;;;;5094665;28;20694;-62
2024/01/02 00:14:57;;;;;;;5.28;1.63;;;16.00;56.40;;;;;;5094997;28;20296;-62
2024/01/02 00:17:24;;;;;;;3.83;1.42;;;15.90;56.40;;;;;;5094905;28;20281;-62
2024/01/02 00:19:51;;;;;;;3.53;1.25;;;16.00;57.20;;;;;;5094763;28;20218;-62
2024/01/02 00:22:18;;;;;;;2.63;1.38;;;16.00;56.50;;;;;;5094954;28;20222;-62
2024/01/02 00:24:45;;;;;;;3.60;1.50;;;15.90;56.50;;;;;;5094927;28;20301;-63
2024/01/02 00:27:12;;;;;;;3.25;1.10;;;16.00;56.80;;;;;;5094861;28;20182;-63
2024/01/02 00:29:39;;;;;;;6.22;1.65;;;16.00;56.80;;;;;;5094807;28;20308;-62
2024/01/02 00:32:08;;;;;;;4.55;1.30;;;16.00;56.80;;;;;;5094803;28;20265;-63
2024/01/02 00:34:35;;;;;;;6.18;1.42;;;15.90;56.70;;;;;;5094832;28;20304;-63
2024/01/02 00:37:01;;;;;;;5.22;1.58;;;15.90;56.70;;;;;;5094720;28;20277;-63
2024/01/02 00:39:29;;;;;;;4.97;1.80;;;16.00;56.80;;;;;;5094661;28;20321;-61
2024/01/02 00:41:56;;;;;;;4.32;1.60;;;16.00;56.80;;;;;;5094413;28;20195;-62
2024/01/02 00:44:22;;;;;;;4.05;1.40;;;16.00;56.80;;;;;;5094268;28;20324;-63
2024/01/02 00:46:49;;;;;;;3.40;1.30;;;16.00;56.80;;;;;;5094325;28;20656;-62
2024/01/02 00:49:17;;;;;;;3.70;1.45;;;15.90;56.80;;;;;;5094378;28;20755;-62
2024/01/02 00:51:44;;;;;;;2.83;1.38;;;16.00;56.80;;;;;;5093718;28;20756;-62
2024/01/02 00:54:11;;;;;;;4.75;1.30;;;16.00;56.80;;;;;;5093988;28;20773;-63
2024/01/02 00:56:38;;;;;;;4.07;1.35;;;16.00;56.80;;;;;;5094305;28;20277;-63
2024/01/02 00:59:05;;;;;;;2.92;1.02;;;15.90;56.80;;;;;;5093868;28;20305;-62
2024/01/02 01:01:32;;;;;;;3.22;1.45;;;16.00;56.80;;;;;;5094239;28;20281;-63
2024/01/02 01:03:58;;;;;;;5.20;1.55;;;15.90;56.80;;;;;;5094011;28;20321;-63
2024/01/02 01:06:27;;;;;;;5.38;1.60;;;16.00;56.90;;;;;;5093812;28;20268;-62
2024/01/02 01:08:54;;;;;;;3.90;1.33;;;16.00;56.80;;;;;;5094048;28;20281;-63
2024/01/02 01:11:21;;;;;;;3.38;1.80;;;16.00;56.90;;;;;;5093931;28;20216;-63
2024/01/02 01:13:48;;;;;;;6.70;1.67;;;16.00;56.90;;;;;;5093444;28;20274;-63
2024/01/02 01:16:15;;;;;;;6.57;2.00;;;16.00;56.90;;;;;;5094145;28;20304;-62
2024/01/02 01:18:42;;;;;;;4.57;1.30;;;16.00;56.90;;;;;;5093741;28;20281;-62
2024/01/02 01:21:08;;;;;;;4.32;1.35;;;15.90;56.90;;;;;;5093574;28;20268;-62
2024/01/02 01:23:37;;;;;;;5.55;1.52;;;16.00;57.00;;;;;;5093454;28;20699;-62
2024/01/02 01:26:04;;;;;;;4.70;1.70;;;16.00;57.00;;;;;;5093455;28;20193;-62
2024/01/02 01:28:31;;;;;;;6.07;1.73;;;16.00;57.10;;;;;;5093477;28;20265;-63
2024/01/02 01:30:57;;;;;;;3.78;1.67;;;15.90;57.00;;;;;;5092995;28;20301;-63
2024/01/02 01:33:24;;;;;;;4.50;1.48;;;15.90;57.00;;;;;;5093616;28;20269;-63
2024/01/02 01:35:51;;;;;;;5.35;1.38;;;16.00;57.20;;;;;;5093371;28;20249;-63
2024/01/02 01:38:18;;;;;;;2.38;1.30;;;16.00;57.20;;;;;;5093264;28;20711;-63
2024/01/02 01:40:46;;;;;;;7.05;1.73;;;15.90;57.30;;;;;;5093457;28;20297;-63
2024/01/02 01:43:14;;;;;;;4.70;1.45;;;16.00;57.40;;;;;;5093028;28;20218;-63
2024/01/02 01:45:41;;;;;;;3.17;1.48;;;15.90;57.40;;;;;;5093045;28;20769;-63
2024/01/02 01:48:09;;;;;;;4.97;1.50;;;16.00;57.50;;;;;;5092981;28;20314;-63
2024/01/02 01:50:36;;;;;;;5.72;1.67;;;15.90;57.40;;;;;;5093070;28;20218;-63
2024/01/02 01:53:05;;;;;;;6.28;1.80;;;15.90;57.40;;;;;;5093223;28;20201;-62
2024/01/02 01:55:32;;;;;;;4.65;1.65;;;15.90;57.60;;;;;;5093351;28;20307;-62
2024/01/02 01:58:00;;;;;;;4.32;1.80;;;16.00;57.50;;;;;;5092651;28;20194;-63
2024/01/02 02:00:28;;;;;;;7.82;1.77;;;15.90;57.60;;;;;;5093119;28;20395;-63
2024/01/02 02:02:56;;;;;;;4.88;1.58;;;15.90;57.70;;;;;;5093114;28;20209;-63
2024/01/02 02:05:26;;;;;;;5.00;1.63;;;16.00;57.80;;;;;;5092490;28;20218;-63
2024/01/02 02:07:54;;;;;;;6.00;1.60;;;16.00;57.70;;;;;;5093017;28;20187;-62
2024/01/02 02:10:21;;;;;;;4.60;1.50;;;16.00;57.80;;;;;;5093092;28;20304;-63
2024/01/02 02:12:49;;;;;;;6.45;2.08;;;15.90;57.70;;;;;;5092271;28;20683;-63
2024/01/02 02:15:17;;;;;;;6.32;1.70;;;16.00;57.80;;;;;;5092694;28;20308;-62
2024/01/02 02:17:44;;;;;;;5.85;2.15;;;15.90;57.80;;;;;;5092319;28;20716;-62
2024/01/02 02:20:11;;;;;;;5.28;1.80;;;16.00;57.90;;;;;;5092076;28;20304;-62
2024/01/02 02:22:39;;;;;;;7.13;1.55;;;16.00;57.90;;;;;;5092518;28;20715;-62
2024/01/02 02:25:08;;;;;;;5.57;1.88;;;15.90;57.90;;;;;;5092693;28;20314;-63
2024/01/02 02:27:36;;;;;;;4.85;1.52;;;16.00;57.90;;;;;;5092105;28;20640;-62
2024/01/02 02:30:03;;;;;;;5.93;1.70;;;15.90;57.90;;;;;;5092625;28;20296;-62
2024/01/02 02:32:30;;;;;;;7.88;1.92;;;15.90;57.90;;;;;;5092611;28;20240;-63
2024/01/02 02:34:56;;;;;;;5.50;1.83;;;15.90;57.90;;;;;;5092119;28;20660;-63
2024/01/02 02:37:23;;;;;;;4.10;1.38;;;15.90;57.90;;;;;;5092178;28;20280;-62
2024/01/02 02:39:50;;;;;;;3.63;1.65;;;15.90;58.00;;;;;;5092356;28;20322;-63
2024/01/02 02:42:18;;;;;;;6.30;1.95;;;15.90;58.00;;;;;;5090964;28;20277;-62
2024/01/02 02:44:45;;;;;;;6.55;1.55;;;15.90;58.00;;;;;;5092438;28;20245;-63
2024/01/02 02:47:12;;;;;;;6.95;1.65;;;15.90;58.00;;;;;;5092144;28;20321;-63
2024/01/02 02:49:40;;;;;;;7.45;1.98;;;16.00;58.10;;;;;;5092013;28;20218;-59
2024/01/02 02:52:07;;;;;;;5.53;1.58;;;15.90;58.20;;;;;;5092149;28;20270;-63
2024/01/02 02:54:34;;;;;;;5.75;1.70;;;15.90;58.10;;;;;;5091952;28;20785;-62
2024/01/02 02:57:02;;;;;;;7.03;1.80;;;15.90;58.20;;;;;;5092303;28;20196;-62
2024/01/02 02:59:30;;;;;;;5.75;2.00;;;15.90;58.20;;;;;;5092100;28;20225;-62
2024/01/02 03:01:58;;;;;;;5.72;1.75;;;15.90;58.20;;;;;;5092115;28;20652;-62
2024/01/02 03:04:25;;;;;;;6.65;2.13;;;15.90;58.20;;;;;;5091728;28;20312;-63
2024/01/02 03:06:51;;;;;;;4.60;1.67;;;15.90;58.20;;;;;;5092183;28;20281;-62
2024/01/02 03:09:18;;;;;;;6.40;1.63;;;16.00;58.30;;;;;;5092080;28;20308;-63
2024/01/02 03:11:45;;;;;;;3.75;1.58;;;16.00;58.30;;;;;;5091939;28;20276;-63
2024/01/02 03:14:12;;;;;;;9.48;2.20;;;15.90;58.20;;;;;;5092313;28;20218;-63
2024/01/02 03:16:41;;;;;;;6.55;1.98;;;15.90;58.30;;;;;;5091986;28;20771;-62
2024/01/02 03:19:08;;;;;;;7.47;1.70;;;15.90;58.30;;;;;;5091427;28;20249;-63
2024/01/02 03:21:35;;;;;;;5.82;1.98;;;15.90;58.30;;;;;;5092291;28;20240;-62
2024/01/02 03:24:03;;;;;;;5.35;1.70;;;15.90;58.30;;;;;;5091606;28;20770;-63
2024/01/02 03:26:29;;;;;;;5.82;1.83;;;15.90;58.30;;;;;;5091704;28;20285;-62
2024/01/02 03:28:56;;;;;;;5.50;2.03;;;15.90;58.30;;;;;;5091941;28;20273;-63
2024/01/02 03:31:23;;;;;;;3.58;1.45;;;15.90;58.30;;;;;;5091683;28;20686;-62
2024/01/02 03:33:51;;;;;;;4.65;1.60;;;15.90;58.30;;;;;;5091659;28;20194;-62
2024/01/02 03:36:19;;;;;;;5.80;1.95;;;15.90;58.40;;;;;;5092037;28;20281;-62
2024/01/02 03:38:45;;;;;;;5.00;1.80;;;15.90;58.40;;;;;;5091638;28;20648;-63
2024/01/02 03:41:12;;;;;;;7.35;1.52;;;15.90;58.50;;;;;;5091647;28;20217;-63
2024/01/02 03:43:39;;;;;;;8.68;1.60;;;15.90;58.50;;;;;;5091933;28;20222;-62
2024/01/02 03:46:07;;;;;;;5.97;1.63;;;15.90;58.50;;;;;;5091668;28;20610;-62
2024/01/02 03:48:34;;;;;;;5.45;1.70;;;15.90;58.50;;;;;;5091209;28;20324;-63
2024/01/02 03:51:02;;;;;;;4.60;1.77;;;15.90;58.60;;;;;;5091680;28;20301;-62
2024/01/02 03:53:29;;;;;;;5.30;1.70;;;15.90;58.60;;;;;;5093623;28;20192;-63
2024/01/02 03:55:56;;;;;;;5.97;1.73;;;15.90;58.50;;;;;;5094829;28;20889;-62
2024/01/02 03:58:23;;;;;;;2.90;1.50;;;16.00;58.70;;;;;;5095445;28;20268;-63
2024/01/02 04:00:51;;;;;;;6.65;1.52;;;15.90;58.60;;;;;;5095331;28;20304;-63
2024/01/02 04:03:18;;;;;;;8.55;1.77;;;15.90;58.70;;;;;;5095162;28;20190;-63
2024/01/02 04:05:45;;;;;;;6.80;1.77;;;15.90;58.60;;;;;;5095628;28;20316;-62
2024/01/02 04:08:13;;;;;;;4.22;1.50;;;15.90;58.60;;;;;;5095224;28;20214;-62
2024/01/02 04:10:40;;;;;;;3.58;1.45;;;15.90;58.70;;;;;;5094682;28;20607;-62
2024/01/02 04:13:09;;;;;;;3.40;1.30;;;15.90;58.80;;;;;;5095447;28;20187;-62
2024/01/02 04:15:36;;;;;;;5.95;1.63;;;15.90;58.70;;;;;;5095134;28;20584;-63
2024/01/02 04:18:04;;;;;;;3.25;1.10;;;15.90;58.80;;;;;;5094710;28;20281;-63
2024/01/02 04:20:30;;;;;;;5.43;1.25;;;15.90;58.80;;;;;;5094889;28;20224;-63
2024/01/02 04:22:58;;;;;;;3.38;1.10;;;15.90;58.80;;;;;;5094970;28;20277;-62
2024/01/02 04:25:26;;;;;;;5.30;1.35;;;15.90;58.90;;;;;;5094674;28;20257;-62
2024/01/02 04:27:54;;;;;;;3.60;1.40;;;15.90;58.90;;;;;;5095188;28;20267;-62
2024/01/02 04:30:21;;;;;;;5.50;1.33;;;15.90;58.90;;;;;;5094809;28;20647;-62
2024/01/02 04:32:48;;;;;;;6.45;1.33;;;15.90;58.90;;;;;;5094327;28;20731;-62
2024/01/02 04:35:15;;;;;;;5.05;1.50;;;15.90;58.90;;;;;;5094820;28;20218;-62
2024/01/02 04:37:43;;;;;;;2.78;1.33;;;15.90;58.90;;;;;;5094777;28;20280;-62
2024/01/02 04:40:11;;;;;;;5.75;1.67;;;15.90;59.50;;;;;;5094351;28;20292;-62
2024/01/02 04:42:39;;;;;;;3.33;1.40;;;15.90;59.00;;;;;;5092380;28;20644;-63
2024/01/02 04:45:08;;;;;;;3.88;1.73;;;15.90;59.00;;;;;;5094626;28;20320;-62
2024/01/02 04:47:35;;;;;;;3.50;1.20;;;15.90;59.00;;;;;;5093727;28;20574;-62
2024/01/02 04:50:04;;;;;;;3.65;1.08;;;15.90;59.00;;;;;;5094564;28;20655;-62
2024/01/02 04:52:31;;;;;;;3.35;1.20;;;15.90;59.00;;;;;;5094386;28;20190;-63
2024/01/02 04:54:59;;;;;;;4.90;1.80;;;15.90;59.00;;;;;;5094068;28;20301;-62
2024/01/02 04:57:26;;;;;;;4.65;1.42;;;15.90;59.00;;;;;;5094300;28;20196;-63
2024/01/02 04:59:54;;;;;;;3.47;1.63;;;15.90;59.10;;;;;;5094543;28;20263;-63
2024/01/02 05:02:23;;;;;;;5.07;1.27;;;15.90;59.00;;;;;;5093896;28;20190;-63
2024/01/02 05:04:50;;;;;;;2.72;1.25;;;15.90;59.10;;;;;;5093173;28;20537;-63
2024/01/02 05:07:17;;;;;;;2.60;1.02;;;15.90;59.10;;;;;;5094143;28;20198;-63
2024/01/02 05:09:44;;;;;;;4.57;1.10;;;15.90;59.10;;;;;;5093669;28;20313;-63
2024/01/02 05:12:11;;;;;;;2.85;1.30;;;15.90;59.10;;;;;;5094067;28;20272;-62
2024/01/02 05:14:38;;;;;;;3.90;1.30;;;15.90;59.10;;;;;;5093963;28;20222;-63
2024/01/02 05:17:10;;;;;;;3.72;1.10;;;15.90;59.10;;;;;;5093380;28;20283;-62
2024/01/02 05:19:37;;;;;;;6.38;1.30;;;15.90;59.20;;;;;;5093816;28;20218;-63
2024/01/02 05:22:04;;;;;;;2.92;1.10;;;15.90;59.20;;;;;;5094158;28;20205;-63
2024/01/02 05:24:31;;;;;;;2.95;1.10;;;15.90;59.20;;;;;;5093317;28;20649;-63
2024/01/02 05:26:58;;;;;;;3.58;1.30;;;16.00;59.30;;;;;;5093732;28;20194;-62
2024/01/02 05:29:25;;;;;;;4.00;1.27;;;15.90;59.90;;;;;;5093732;28;20305;-63
2024/01/02 05:31:52;;;;;;;1.60;0.80;;;15.90;59.30;;;;;;5093303;28;20274;-63
2024/01/02 05:34:20;;;;;;;2.92;1.27;;;15.90;59.30;;;;;;5093636;28;20300;-63
2024/01/02 05:36:47;;;;;;;3.72;1.30;;;15.90;59.30;;;;;;5093503;28;20276;-63
2024/01/02 05:39:14;;;;;;;3.38;1.08;;;15.90;59.30;;;;;;5092794;28;20737;-63
2024/01/02 05:41:41;;;;;;;1.52;1.02;;;15.90;59.30;;;;;;5093219;28;20656;-63
2024/01/02 05:44:08;;;;;;;3.17;0.98;;;15.90;59.40;;;;;;5093036;28;20304;-62
2024/01/02 05:46:35;;;;;;;2.92;1.17;;;15.90;59.50;;;;;;5092807;28;20269;-63
2024/01/02 05:49:02;;;;;;;2.35;1.00;;;15.90;59.50;;;;;;5093202;28;20613;-63
2024/01/02 05:51:30;;;;;;;1.65;1.10;;;15.90;59.50;;;;;;5093153;28;20285;-61
2024/01/02 05:53:57;;;;;;;3.90;1.20;;;15.90;59.50;;;;;;5092963;28;20274;-62
2024/01/02 05:56:24;;;;;;;2.10;0.90;;;15.90;59.40;;;;;;5093040;28;20276;-62
2024/01/02 05:58:51;;;;;;;3.05;1.50;;;15.90;59.50;;;;;;5093091;28;20281;-63
2024/01/02 06:01:18;;;;;;;3.70;1.38;;;15.90;59.50;;;;;;5092763;28;20300;-62
2024/01/02 06:03:45;;;;;;;3.38;1.20;;;15.90;59.50;;;;;;5092626;28;20277;-62
2024/01/02 06:06:12;;;;;;;3.15;1.10;;;15.90;59.50;;;;;;5092899;28;20581;-63
2024/01/02 06:08:41;;;;;;;2.70;0.95;;;15.90;59.50;;;;;;5092549;28;20285;-63
2024/01/02 06:11:09;;;;;;;2.05;1.00;;;15.90;59.50;;;;;;5092821;28;20218;-63
2024/01/02 06:13:36;;;;;;;3.40;1.27;;;15.90;59.60;;;;;;5092938;28;20182;-63
2024/01/02 06:16:04;;;;;;;1.15;0.82;;;15.90;59.60;;;;;;5092537;28;20221;-63
2024/01/02 06:18:30;;;;;;;2.47;0.93;;;15.90;59.70;;;;;;5093055;28;20281;-62
2024/01/02 06:20:58;;;;;;;2.55;0.90;;;15.90;59.60;;;;;;5092980;28;20305;-63
2024/01/02 06:23:26;;;;;;;2.03;1.10;;;15.90;59.70;;;;;;5092196;28;20233;-63
2024/01/02 06:25:54;;;;;;;1.92;1.02;;;15.90;59.70;;;;;;5092298;28;20272;-62
2024/01/02 06:28:21;;;;;;;4.13;1.27;;;15.90;59.80;;;;;;5092603;28;20197;-63
2024/01/02 06:30:48;;;;;;;3.00;1.17;;;15.90;59.70;;;;;;5092516;28;20312;-62
2024/01/02 06:33:15;;;;;;;2.25;1.05;;;15.90;59.80;;;;;;5092367;28;20273;-63
2024/01/02 06:35:42;;;;;;;2.40;0.90;;;15.90;59.80;;;;;;5092634;28;20210;-62
2024/01/02 06:38:09;;;;;;;3.47;1.30;;;15.90;59.80;;;;;;5092363;28;20197;-63
2024/01/02 06:40:37;;;;;;;3.00;1.10;;;15.90;59.80;;;;;;5092549;28;20381;-62
2024/01/02 06:43:05;;;;;;;3.53;0.75;;;15.90;59.80;;;;;;5092483;28;20273;-62
2024/01/02 06:45:33;;;;;;;2.22;0.75;;;15.90;59.80;;;;;;5092002;28;20229;-62
2024/01/02 06:48:00;;;;;;;2.08;1.00;;;15.90;60.70;;;;;;5092405;28;20292;-63
2024/01/02 06:50:26;;;;;;;3.05;1.00;;;15.90;59.90;;;;;;5092805;28;20306;-62
2024/01/02 06:52:54;;;;;;;3.42;0.98;;;15.90;59.80;;;;;;5092175;28;20200;-62
2024/01/02 06:55:21;;;;;;;3.38;0.70;;;15.90;59.80;;;;;;5092487;28;20217;-62
2024/01/02 06:57:49;;;;;;;3.22;1.45;;;15.90;59.90;;;;;;5092376;28;20281;-62
2024/01/02 07:00:18;;;;;;;4.50;1.13;;;15.90;59.90;;;;;;5092157;28;20217;-63
2024/01/02 07:02:45;;;;;;;1.85;0.90;;;15.90;60.00;;;;;;5092161;28;20547;-62
2024/01/02 07:05:14;;;;;;;1.92;1.00;;;15.90;60.00;;;;;;5092003;28;20320;-63
2024/01/02 07:07:42;;;;;;;3.10;1.00;;;15.90;60.00;;;;;;5091804;28;20217;-62
2024/01/02 07:10:09;;;;;;;3.15;1.17;;;15.90;60.00;;;;;;5091993;28;20703;-62
2024/01/02 07:12:36;;;;;;;3.08;0.90;;;15.90;60.10;;;;;;5092195;28;20269;-63
2024/01/02 07:15:05;;;;;;;2.95;0.90;;;15.90;60.10;;;;;;5091607;28;20786;-62
2024/01/02 07:17:33;;;;;;;2.70;1.08;;;15.90;60.20;;;;;;5092172;28;20530;-62
2024/01/02 07:20:00;;;;;;;2.75;0.88;;;15.80;60.20;;;;;;5091698;28;20764;-62
2024/01/02 07:22:27;;;;;;;5.68;1.10;;;15.90;61.00;;;;;;5091801;28;20186;-62
2024/01/02 07:24:55;;;;;;;1.83;0.88;;;15.90;60.20;;;;;;5092008;28;20221;-62
2024/01/02 07:27:22;;;;;;;2.63;1.08;;;15.90;60.30;;;;;;5092345;28;20627;-63
2024/01/02 07:29:49;;;;;;;2.97;1.08;;;15.90;60.20;;;;;;5095331;28;20731;-63
2024/01/02 07:32:16;;;;;;;3.25;0.98;;;15.90;60.20;;;;;;5095619;28;20277;-62
2024/01/02 07:34:44;;;;;;;3.42;1.55;;;15.90;60.20;;;;;;5095958;28;20306;-63
2024/01/02 07:37:11;;;;;;;4.72;0.90;;;15.90;60.20;;;;;;5095311;28;20717;-62
2024/01/02 07:39:39;;;;;;;1.17;1.00;;;15.90;60.30;;;;;;5095280;28;20553;-63
2024/01/02 07:42:08;;;;;;;2.55;0.90;;;15.90;60.30;;;;;;5095502;28;20298;-62
2024/01/02 07:44:35;;;;;;;2.85;0.85;;;15.90;60.30;;;;;;5095251;28;20214;-62
2024/01/02 07:47:02;;;;;;;2.30;1.00;;;15.90;60.30;;;;;;5095430;28;20316;-63
2024/01/02 07:49:29;;;;;;;7.32;1.20;;;15.90;60.30;;;;;;5095590;28;20225;-62
2024/01/02 07:51:57;;;;;;;3.17;1.20;;;15.90;60.40;;;;;;5095540;28;20277;-63
2024/01/02 07:54:24;;;;;;;2.72;1.10;;;15.90;60.50;;;;;;5100142;28;20280;-63
2024/01/02 07:56:51;;;;;;;3.95;1.10;;;15.80;60.40;;;;;;5096783;28;20236;-62
2024/01/02 07:59:20;;;;;;;3.15;1.20;;;15.90;60.50;;;;;;5105458;28;20254;-62
2024/01/02 08:01:48;;;;;;;5.47;1.10;;;15.90;60.60;;;;;;5105473;27;20201;-62
2024/01/02 08:04:17;;;;;;;1.98;0.95;;;15.90;60.70;;;;;;5047782;28;20387;-62
2024/01/02 08:06:44;;;;;;;3.38;0.98;;;15.90;60.70;;;;;;5072969;28;20256;-63
2024/01/02 08:09:15;;;;;;;2.85;1.10;;;15.90;61.10;;;;;;5071810;28;20673;-63
2024/01/02 08:11:43;;;;;;;4.22;0.98;;;15.90;60.80;;;;;;5108841;28;20203;-63
2024/01/02 08:14:14;;;;;;;6.85;0.93;;;16.00;61.90;;;;;;5086436;28;21639;-62
2024/01/02 08:16:41;;;;;;;6.10;1.40;;;16.00;61.10;;;;;;5099329;28;20316;-63
2024/01/02 08:19:09;;;;;;;2.60;1.13;;;16.10;61.30;;;;;;5099828;28;20733;-63
2024/01/02 08:21:37;;;;;;;4.63;1.25;;;16.10;61.60;;;;;;5107864;28;20221;-62
2024/01/02 08:24:04;;;;;;;2.28;1.02;;;16.10;61.50;;;;;;5061273;28;20707;-62
2024/01/02 08:26:33;;;;;;;4.15;0.95;;;16.10;61.10;;;;;;5108773;28;20225;-63
2024/01/02 08:28:59;;;;;;;6.13;1.40;;;16.10;61.50;;;;;;5112518;28;20268;-62
2024/01/02 08:31:27;;;;;;;3.83;1.10;;;16.20;61.40;;;;;;5111502;28;20303;-62
2024/01/02 08:33:53;;;;;;;7.65;1.10;;;16.20;61.50;;;;;;5108947;28;20209;-63
2024/01/02 08:36:20;;;;;;;1.20;1.00;;;16.20;61.40;;;;;;5104390;28;20213;-62
2024/01/02 08:38:48;;;;;;;5.05;1.17;;;16.20;61.50;;;;;;5105875;28;20227;-62
2024/01/02 08:41:15;;;;;;;2.63;1.17;;;16.20;61.40;;;;;;5103593;28;20253;-62
2024/01/02 08:43:44;;;;;;;4.00;1.20;;;16.20;61.30;;;;;;5069391;28;20213;-62
2024/01/02 08:46:11;;;;;;;2.70;0.90;;;16.20;61.10;;;;;;5110578;28;20221;-63
2024/01/02 08:48:38;;;;;;;2.60;1.02;;;16.20;61.30;;;;;;5112004;28;20268;-62
2024/01/02 08:51:05;;;;;;;2.33;1.10;;;16.20;61.20;;;;;;5111910;28;20209;-63
2024/01/02 08:53:32;;;;;;;3.30;1.10;;;16.20;61.20;;;;;;5110333;28;20268;-63
2024/01/02 08:55:59;;;;;;;5.90;1.30;;;16.20;61.30;;;;;;5109470;28;20288;-62
2024/01/02 08:58:26;;;;;;;4.68;1.13;;;16.20;61.30;;;;;;5085790;28;20177;-62
2024/01/02 09:00:54;;;;;;;4.50;1.10;;;16.30;61.30;;;;;;5112184;28;20732;-63
2024/01/02 09:03:21;;;;;;;1.85;1.00;;;16.30;61.30;;;;;;5109557;28;20209;-62
2024/01/02 09:05:48;;;;;;;3.05;1.17;;;16.30;61.20;;;;;;5109442;28;20335;-62
2024/01/02 09:08:15;;;;;;;5.38;1.30;;;16.30;61.30;;;;;;5112146;28;20631;-62
2024/01/02 09:10:43;;;;;;;3.45;1.20;;;16.30;61.40;;;;;;5112190;28;20219;-62
2024/01/02 09:13:11;;;;;;;3.63;1.20;;;16.30;61.40;;;;;;5110769;28;20268;-62
2024/01/02 09:15:38;;;;;;;2.38;0.95;;;16.30;61.40;;;;;;5109409;28;20243;-63
2024/01/02 09:18:07;;;;;;;3.35;1.10;;;16.20;61.30;;;;;;5114697;27;20258;-63
2024/01/02 09:20:34;;;;;;;4.22;1.42;;;16.30;61.60;;;;;;5101423;27;20411;-63
2024/01/02 09:23:01;;;;;;;1.83;0.80;;;16.30;61.50;;;;;;5109269;28;20198;-62
2024/01/02 09:25:31;;;;;;;2.58;1.20;;;16.30;61.60;;;;;;5111841;28;20225;-62
2024/01/02 09:27:59;;;;;;;6.97;1.55;;;16.30;61.60;;;;;;5109212;28;20268;-62
2024/01/02 09:30:26;;;;;;;3.40;1.23;;;16.30;61.50;;;;;;5111693;28;20213;-62
2024/01/02 09:32:53;;;;;;;2.17;1.05;;;16.30;61.40;;;;;;5109751;28;20194;-63
2024/01/02 09:35:21;;;;;;;3.65;1.13;;;16.30;61.50;;;;;;5111168;28;20233;-62
2024/01/02 09:37:48;;;;;;;3.47;1.30;;;16.30;61.50;;;;;;5110288;28;21037;-63
2024/01/02 09:40:27;;;;;;;3.70;1.20;;;16.30;61.50;;;;;;5111921;28;20305;-62
2024/01/02 09:43:06;;;;;;;2.25;1.17;;;16.30;61.60;;;;;;5109076;28;20182;-63
2024/01/02 09:45:44;;;;;;;2.88;1.20;;;16.30;61.50;;;;;;5111752;28;20473;-62
2024/01/02 09:48:29;;;;;;;3.58;1.27;;;16.30;61.60;;;;;;5110615;28;20228;-62
2024/01/02 09:51:07;;;;;;;7.15;1.30;;;16.30;61.70;;;;;;5110267;28;20698;-62
2024/01/02 09:54:00;;;;;;;3.25;1.35;;;16.30;62.00;;;;;;5111033;28;20288;-62
2024/01/02 09:56:33;;;;;;;2.47;1.15;;;16.30;61.80;;;;;;5110023;28;20213;-63
2024/01/02 09:59:11;;;;;;;3.67;1.33;;;16.30;61.80;;;;;;5110781;28;20280;-62
2024/01/02 10:01:50;;;;;;;3.25;1.08;;;16.30;62.10;;;;;;5109156;28;20226;-62
2024/01/02 10:04:43;;;;;;;6.70;1.42;;;16.30;62.10;;;;;;5111523;28;20231;-63
2024/01/02 10:07:34;;;;;;;3.97;1.10;;;16.40;62.20;;;;;;5108902;28;20733;-62
2024/01/02 10:10:09;;;;;;;3.25;1.40;;;16.40;62.20;;;;;;5109186;28;20282;-62
2024/01/02 10:12:51;;;;;;;6.68;1.40;;;16.40;62.20;;;;;;5110226;28;20532;-63
2024/01/02 10:15:35;;;;;;;4.63;1.17;;;16.40;62.20;;;;;;5109089;28;20295;-60
2024/01/02 10:18:12;;;;;;;5.15;1.38;;;16.40;62.30;;;;;;5110318;28;20272;-63
2024/01/02 10:20:50;;;;;;;5.25;1.25;;;16.50;62.30;;;;;;5096458;28;20225;-62
2024/01/02 10:23:27;;;;;;;3.83;1.10;;;16.50;62.30;;;;;;5107885;28;20199;-62
2024/01/02 10:25:59;;;;;;;5.18;1.15;;;16.50;62.30;;;;;;5108875;28;20233;-62
2024/01/02 10:28:27;;;;;;;4.20;1.10;;;16.50;62.30;;;;;;5103308;28;20197;-63
2024/01/02 10:31:03;;;;;;;4.75;1.13;;;16.50;62.30;;;;;;5109007;28;20635;-62
2024/01/02 10:33:37;;;;;;;3.10;1.20;;;16.50;62.30;;;;;;5103753;28;20193;-61
2024/01/02 10:36:08;;;;;;;4.78;1.10;;;16.50;62.30;;;;;;5110632;28;20239;-62
2024/01/02 10:38:51;;;;;;;3.20;1.20;;;16.40;62.20;;;;;;5108248;28;20189;-62
2024/01/02 10:41:38;;;;;;;3.65;1.35;;;16.50;62.30;;;;;;5110260;28;20299;-62
2024/01/02 10:44:13;;;;;;;1.92;0.80;;;16.40;62.20;;;;;;5109195;28;20272;-62
2024/01/02 10:46:48;;;;;;;1.55;0.88;;;16.50;62.30;;;;;;5110321;28;20248;-62
2024/01/02 10:49:27;;;;;;;2.88;1.10;;;16.50;62.30;;;;;;5109793;28;20200;-62
2024/01/02 10:52:02;;;;;;;2.13;0.90;;;16.50;62.30;;;;;;5107329;28;20215;-62
2024/01/02 10:54:36;;;;;;;3.15;1.10;;;16.50;62.30;;;;;;5110273;28;20208;-62
2024/01/02 10:57:07;;;;;;;5.40;1.23;;;16.50;62.30;;;;;;5109975;28;20209;-63
2024/01/02 11:00:00;;;;;;;4.20;0.90;;;16.50;62.30;;;;;;5110659;28;20204;-62
2024/01/02 11:02:41;;;;;;;4.43;1.25;;;16.50;62.30;;;;;;5106779;28;20276;-62
2024/01/02 11:05:12;;;;;;;2.25;0.90;;;16.40;62.20;;;;;;5111156;28;20216;-62
2024/01/02 11:07:42;;;;;;;2.72;1.10;;;16.50;62.30;;;;;;5112143;28;20209;-63
2024/01/02 11:10:14;;;;;;;3.33;1.10;;;16.50;62.30;;;;;;5112461;28;20259;-63
2024/01/02 11:12:52;;;;;;;2.63;1.00;;;16.50;62.30;;;;;;5112559;28;20189;-62
2024/01/02 11:15:20;;;;;;;3.08;1.00;;;16.50;62.30;;;;;;5113079;28;20303;-63
2024/01/02 11:17:52;;;;;;;7.20;0.90;;;16.60;62.40;;;;;;5113556;28;20185;-62
2024/01/02 11:20:21;;;;;;;3.30;0.85;;;16.70;62.50;;;;;;5113185;28;20304;-62
2024/01/02 11:22:54;;;;;;;2.72;1.08;;;16.80;62.60;;;;;;5111783;28;20208;-63
2024/01/02 11:25:28;;;;;;;2.30;1.10;;;16.90;62.70;;;;;;5113867;28;20244;-63
2024/01/02 11:27:57;;;;;;;7.97;1.77;;;17.00;62.60;;;;;;5113357;28;20209;-63
2024/01/02 11:30:26;;;;;;;3.05;1.25;;;17.10;62.20;;;;;;5112482;28;20307;-63
2024/01/02 11:33:02;;;;;;;3.15;1.10;;;17.20;62.70;;;;;;5113806;28;20220;-63
2024/01/02 11:35:37;;;;;;;3.15;1.30;;;17.40;61.80;;;;;;5113478;28;20208;-62
2024/01/02 11:38:10;;;;;;;2.67;1.00;;;17.50;61.40;;;;;;5114033;28;20191;-62
2024/01/02 11:40:51;;;;;;;2.90;1.00;;;17.60;61.20;;;;;;5110661;28;20304;-63
2024/01/02 11:43:27;;;;;;;1.95;1.15;;;17.70;60.90;;;;;;5110805;28;20192;-63
2024/01/02 11:45:59;;;;;;;1.90;0.80;;;17.80;60.70;;;;;;5111168;28;20455;-63
2024/01/02 11:48:40;;;;;;;3.78;0.70;;;18.00;60.60;;;;;;5103275;27;20232;-63
2024/01/02 11:51:15;;;;;;;3.30;1.45;;;18.10;60.20;;;;;;5103152;28;20213;-62
2024/01/02 11:53:56;;;;;;;2.03;0.88;;;18.20;60.00;;;;;;5112610;28;20283;-62
2024/01/02 11:56:27;;;;;;;2.28;0.98;;;18.40;59.80;;;;;;5113685;28;20264;-62
2024/01/02 11:59:04;;;;;;;2.65;0.80;;;18.50;59.50;;;;;;5113416;28;20271;-62
2024/01/02 12:01:39;;;;;;;2.53;0.82;;;18.60;59.10;;;;;;5114040;28;20205;-63
2024/01/02 12:04:23;;;;;;;2.13;1.23;;;18.70;59.10;;;;;;5111456;28;20189;-63
2024/01/02 12:06:55;;;;;;;1.70;0.98;;;18.80;59.10;;;;;;5113779;28;20227;-62
2024/01/02 12:09:26;;;;;;;3.72;1.00;;;18.90;58.80;;;;;;5111068;28;20188;-62
2024/01/02 12:12:06;;;;;;;2.00;0.90;;;19.00;58.70;;;;;;5112364;28;20296;-63
2024/01/02 12:14:46;;;;;;;2.22;0.90;;;19.10;58.50;;;;;;5109955;28;20540;-62
2024/01/02 12:17:18;;;;;;;3.08;1.38;;;19.20;58.30;;;;;;5109860;28;20879;-62
2024/01/02 12:19:48;;;;;;;2.47;1.00;;;19.30;58.20;;;;;;5112960;28;20201;-64
2024/01/02 12:22:15;;;;;;;1.52;1.00;;;19.30;58.00;;;;;;5112485;28;20295;-62
2024/01/02 12:24:42;;;;;;;2.17;0.90;;;19.40;57.90;;;;;;5112349;28;20228;-63
2024/01/02 12:27:16;;;;;;;1.77;0.82;;;19.50;58.40;;;;;;5112993;28;20220;-62
2024/01/02 12:29:50;;;;;;;3.00;1.08;;;19.50;57.70;;;;;;5113030;28;20250;-63
2024/01/02 12:32:26;;;;;;;3.95;1.35;;;19.60;57.50;;;;;;5112363;28;20285;-63
2024/01/02 12:35:02;;;;;;;4.88;1.40;;;19.60;57.40;;;;;;5113443;28;20314;-63
2024/01/02 12:37:37;;;;;;;3.70;1.45;;;19.60;57.40;;;;;;5109818;28;20276;-63
2024/01/02 12:40:10;;;;;;;4.32;1.92;;;19.60;57.90;;;;;;5109105;28;20238;-63
2024/01/02 12:42:47;;;;;;;3.28;1.15;;;19.60;57.40;;;;;;5122106;27;20333;-62
2024/01/02 12:45:18;;;;;;;5.20;1.35;;;19.70;57.10;;;;;;5108002;28;20726;-62
2024/01/02 12:47:48;;;;;;;3.05;1.40;;;19.70;56.90;;;;;;5112050;28;20276;-63
2024/01/02 12:50:18;;;;;;;5.80;1.45;;;19.70;56.90;;;;;;5110212;28;20192;-63
2024/01/02 12:52:52;;;;;;;5.75;1.40;;;19.70;56.70;;;;;;5112253;28;20492;-62
2024/01/02 12:55:20;;;;;;;4.60;1.42;;;19.70;56.70;;;;;;5112464;28;20319;-62
2024/01/02 12:57:53;;;;;;;4.75;1.50;;;19.70;56.90;;;;;;5110979;28;20772;-62